sensor_id;sensor_type;location;lat;lon;timestamp;P1;durP1;ratioP1;P2;durP2;ratioP2
16015;SDS011;8112;53.592;10.184;2023-09-08T00:00:07;7.07;;;6.47;;
16015;SDS011;8112;53.592;10.184;2023-09-08T00:05:11;6.93;;;6.30;;
16015;SDS011;8112;53.592;10.184;2023-09-08T00:10:13;7.03;;;6.40;;
16015;SDS011;8112;53.592;10.184;2023-09-08T00:15:15;8.13;;;6.13;;
16015;SDS011;8112;53.592;10.184;2023-09-08T00:20:18;7.87;;;6.37;;
16015;SDS011;8112;53.592;10.184;2023-09-08T00:25:20;7.00;;;6.40;;
16015;SDS011;8112;53.592;10.184;2023-09-08T00:30:21;7.30;;;6.60;;
16015;SDS011;8112;53.592;10.184;2023-09-08T00:35:24;7.10;;;6.50;;
16015;SDS011;8112;53.592;10.184;2023-09-08T00:40:26;7.67;;;6.80;;
16015;SDS011;8112;53.592;10.184;2023-09-08T00:45:28;7.03;;;6.37;;
16015;SDS011;8112;53.592;10.184;2023-09-08T00:50:32;8.63;;;6.33;;
16015;SDS011;8112;53.592;10.184;2023-09-08T00:55:34;7.70;;;6.13;;
16015;SDS011;8112;53.592;10.184;2023-09-08T01:00:36;7.80;;;6.70;;
16015;SDS011;8112;53.592;10.184;2023-09-08T01:05:39;7.57;;;6.83;;
16015;SDS011;8112;53.592;10.184;2023-09-08T01:10:41;7.70;;;6.83;;
16015;SDS011;8112;53.592;10.184;2023-09-08T01:15:43;8.20;;;6.17;;
16015;SDS011;8112;53.592;10.184;2023-09-08T01:20:55;7.13;;;6.47;;
16015;SDS011;8112;53.592;10.184;2023-09-08T01:26:15;8.33;;;6.93;;
16015;SDS011;8112;53.592;10.184;2023-09-08T01:31:18;7.20;;;6.60;;
16015;SDS011;8112;53.592;10.184;2023-09-08T01:36:25;7.00;;;6.37;;
16015;SDS011;8112;53.592;10.184;2023-09-08T01:41:28;7.63;;;6.93;;
16015;SDS011;8112;53.592;10.184;2023-09-08T01:46:31;10.97;;;7.40;;
16015;SDS011;8112;53.592;10.184;2023-09-08T01:51:33;7.40;;;6.80;;
16015;SDS011;8112;53.592;10.184;2023-09-08T01:56:36;7.90;;;7.20;;
16015;SDS011;8112;53.592;10.184;2023-09-08T02:01:38;7.87;;;7.03;;
16015;SDS011;8112;53.592;10.184;2023-09-08T02:06:40;7.87;;;7.17;;
16015;SDS011;8112;53.592;10.184;2023-09-08T02:11:43;7.90;;;7.20;;
16015;SDS011;8112;53.592;10.184;2023-09-08T02:16:44;8.00;;;7.20;;
16015;SDS011;8112;53.592;10.184;2023-09-08T02:21:46;7.80;;;7.00;;
16015;SDS011;8112;53.592;10.184;2023-09-08T02:26:49;8.20;;;7.20;;
16015;SDS011;8112;53.592;10.184;2023-09-08T02:31:51;8.53;;;7.83;;
16015;SDS011;8112;53.592;10.184;2023-09-08T02:36:53;8.83;;;8.07;;
16015;SDS011;8112;53.592;10.184;2023-09-08T02:42:00;8.57;;;7.70;;
16015;SDS011;8112;53.592;10.184;2023-09-08T02:47:02;8.47;;;7.77;;
16015;SDS011;8112;53.592;10.184;2023-09-08T02:52:07;9.07;;;8.03;;
16015;SDS011;8112;53.592;10.184;2023-09-08T02:57:10;8.77;;;7.87;;
16015;SDS011;8112;53.592;10.184;2023-09-08T03:02:11;9.00;;;8.10;;
16015;SDS011;8112;53.592;10.184;2023-09-08T03:07:13;9.97;;;8.97;;
16015;SDS011;8112;53.592;10.184;2023-09-08T03:12:18;9.53;;;8.63;;
16015;SDS011;8112;53.592;10.184;2023-09-08T03:17:20;10.00;;;8.70;;
16015;SDS011;8112;53.592;10.184;2023-09-08T03:22:22;9.03;;;8.23;;
16015;SDS011;8112;53.592;10.184;2023-09-08T03:27:26;8.93;;;8.13;;
16015;SDS011;8112;53.592;10.184;2023-09-08T03:32:28;9.53;;;8.53;;
16015;SDS011;8112;53.592;10.184;2023-09-08T03:37:30;10.33;;;8.47;;
16015;SDS011;8112;53.592;10.184;2023-09-08T03:42:33;9.37;;;8.57;;
16015;SDS011;8112;53.592;10.184;2023-09-08T03:47:36;9.97;;;9.10;;
16015;SDS011;8112;53.592;10.184;2023-09-08T03:52:39;9.97;;;9.07;;
16015;SDS011;8112;53.592;10.184;2023-09-08T03:57:42;9.73;;;8.73;;
16015;SDS011;8112;53.592;10.184;2023-09-08T04:02:44;9.80;;;8.90;;
16015;SDS011;8112;53.592;10.184;2023-09-08T04:07:46;10.40;;;9.30;;
16015;SDS011;8112;53.592;10.184;2023-09-08T04:12:49;9.43;;;8.63;;
16015;SDS011;8112;53.592;10.184;2023-09-08T04:17:51;10.47;;;9.57;;
16015;SDS011;8112;53.592;10.184;2023-09-08T04:22:53;10.60;;;9.70;;
16015;SDS011;8112;53.592;10.184;2023-09-08T04:27:56;10.80;;;9.80;;
16015;SDS011;8112;53.592;10.184;2023-09-08T04:32:57;10.80;;;9.70;;
16015;SDS011;8112;53.592;10.184;2023-09-08T04:37:59;11.03;;;9.83;;
16015;SDS011;8112;53.592;10.184;2023-09-08T04:43:02;10.10;;;9.30;;
16015;SDS011;8112;53.592;10.184;2023-09-08T04:48:05;11.47;;;10.37;;
16015;SDS011;8112;53.592;10.184;2023-09-08T04:53:07;12.07;;;9.90;;
16015;SDS011;8112;53.592;10.184;2023-09-08T04:58:10;10.13;;;9.17;;
16015;SDS011;8112;53.592;10.184;2023-09-08T05:03:12;13.47;;;9.43;;
16015;SDS011;8112;53.592;10.184;2023-09-08T05:08:14;10.57;;;9.57;;
16015;SDS011;8112;53.592;10.184;2023-09-08T05:13:18;9.43;;;8.53;;
16015;SDS011;8112;53.592;10.184;2023-09-08T05:18:20;10.50;;;9.10;;
16015;SDS011;8112;53.592;10.184;2023-09-08T05:23:21;10.60;;;9.60;;
16015;SDS011;8112;53.592;10.184;2023-09-08T05:28:25;10.60;;;9.60;;
16015;SDS011;8112;53.592;10.184;2023-09-08T05:33:27;11.80;;;9.33;;
16015;SDS011;8112;53.592;10.184;2023-09-08T05:38:28;10.03;;;9.17;;
16015;SDS011;8112;53.592;10.184;2023-09-08T05:43:31;9.57;;;8.67;;
16015;SDS011;8112;53.592;10.184;2023-09-08T05:48:33;9.80;;;8.90;;
16015;SDS011;8112;53.592;10.184;2023-09-08T05:53:35;10.07;;;9.10;;
16015;SDS011;8112;53.592;10.184;2023-09-08T05:58:41;9.73;;;8.83;;
16015;SDS011;8112;53.592;10.184;2023-09-08T06:03:43;10.07;;;8.33;;
16015;SDS011;8112;53.592;10.184;2023-09-08T06:08:47;10.00;;;9.10;;
16015;SDS011;8112;53.592;10.184;2023-09-08T06:13:50;9.77;;;8.87;;
16015;SDS011;8112;53.592;10.184;2023-09-08T06:18:53;10.50;;;8.77;;
16015;SDS011;8112;53.592;10.184;2023-09-08T06:23:55;10.93;;;9.13;;
16015;SDS011;8112;53.592;10.184;2023-09-08T06:28:59;9.10;;;8.30;;
16015;SDS011;8112;53.592;10.184;2023-09-08T06:34:01;9.03;;;8.20;;
16015;SDS011;8112;53.592;10.184;2023-09-08T06:39:02;8.80;;;7.97;;
16015;SDS011;8112;53.592;10.184;2023-09-08T06:44:07;9.70;;;8.53;;
16015;SDS011;8112;53.592;10.184;2023-09-08T06:49:08;9.57;;;8.60;;
16015;SDS011;8112;53.592;10.184;2023-09-08T06:54:10;9.90;;;8.67;;
16015;SDS011;8112;53.592;10.184;2023-09-08T06:59:17;9.17;;;8.37;;
16015;SDS011;8112;53.592;10.184;2023-09-08T07:04:19;9.10;;;8.30;;
16015;SDS011;8112;53.592;10.184;2023-09-08T07:09:21;9.20;;;8.20;;
16015;SDS011;8112;53.592;10.184;2023-09-08T07:14:24;10.03;;;8.40;;
16015;SDS011;8112;53.592;10.184;2023-09-08T07:19:26;10.17;;;7.97;;
16015;SDS011;8112;53.592;10.184;2023-09-08T07:24:28;8.13;;;7.30;;
16015;SDS011;8112;53.592;10.184;2023-09-08T07:29:31;7.50;;;6.90;;
16015;SDS011;8112;53.592;10.184;2023-09-08T07:34:33;8.80;;;7.93;;
16015;SDS011;8112;53.592;10.184;2023-09-08T07:39:35;8.47;;;7.67;;
16015;SDS011;8112;53.592;10.184;2023-09-08T07:44:38;8.80;;;7.47;;
16015;SDS011;8112;53.592;10.184;2023-09-08T07:49:45;7.93;;;7.23;;
16015;SDS011;8112;53.592;10.184;2023-09-08T07:54:47;9.70;;;7.37;;
16015;SDS011;8112;53.592;10.184;2023-09-08T07:59:50;7.47;;;6.83;;
16015;SDS011;8112;53.592;10.184;2023-09-08T08:04:52;7.70;;;6.87;;
16015;SDS011;8112;53.592;10.184;2023-09-08T08:09:54;8.40;;;7.60;;
16015;SDS011;8112;53.592;10.184;2023-09-08T08:14:57;7.23;;;6.53;;
16015;SDS011;8112;53.592;10.184;2023-09-08T08:19:59;7.30;;;6.57;;
16015;SDS011;8112;53.592;10.184;2023-09-08T08:25:07;7.13;;;6.43;;
16015;SDS011;8112;53.592;10.184;2023-09-08T08:30:10;7.07;;;6.47;;
16015;SDS011;8112;53.592;10.184;2023-09-08T08:35:12;6.80;;;6.10;;
16015;SDS011;8112;53.592;10.184;2023-09-08T08:40:14;7.27;;;6.57;;
16015;SDS011;8112;53.592;10.184;2023-09-08T08:45:17;7.13;;;6.47;;
16015;SDS011;8112;53.592;10.184;2023-09-08T08:50:21;6.80;;;6.20;;
16015;SDS011;8112;53.592;10.184;2023-09-08T08:55:23;7.13;;;6.37;;
16015;SDS011;8112;53.592;10.184;2023-09-08T09:00:27;8.47;;;5.80;;
16015;SDS011;8112;53.592;10.184;2023-09-08T09:05:30;7.10;;;6.45;;
16015;SDS011;8112;53.592;10.184;2023-09-08T09:10:32;8.90;;;6.30;;
16015;SDS011;8112;53.592;10.184;2023-09-08T09:15:35;7.70;;;6.00;;
16015;SDS011;8112;53.592;10.184;2023-09-08T09:20:37;7.10;;;6.23;;
16015;SDS011;8112;53.592;10.184;2023-09-08T09:25:40;9.37;;;6.17;;
16015;SDS011;8112;53.592;10.184;2023-09-08T09:30:48;7.32;;;6.20;;
16015;SDS011;8112;53.592;10.184;2023-09-08T09:35:52;8.77;;;6.43;;
16015;SDS011;8112;53.592;10.184;2023-09-08T09:40:55;7.00;;;6.30;;
16015;SDS011;8112;53.592;10.184;2023-09-08T09:45:59;6.30;;;5.80;;
16015;SDS011;8112;53.592;10.184;2023-09-08T09:51:06;6.70;;;5.28;;
16015;SDS011;8112;53.592;10.184;2023-09-08T09:56:17;6.67;;;6.13;;
16015;SDS011;8112;53.592;10.184;2023-09-08T10:01:20;7.43;;;6.50;;
16015;SDS011;8112;53.592;10.184;2023-09-08T10:06:26;8.90;;;5.75;;
16015;SDS011;8112;53.592;10.184;2023-09-08T10:11:28;7.13;;;6.00;;
16015;SDS011;8112;53.592;10.184;2023-09-08T10:16:33;6.25;;;5.68;;
16015;SDS011;8112;53.592;10.184;2023-09-08T10:21:38;6.95;;;5.85;;
16015;SDS011;8112;53.592;10.184;2023-09-08T10:26:43;7.38;;;5.70;;
16015;SDS011;8112;53.592;10.184;2023-09-08T10:31:48;7.35;;;6.22;;
16015;SDS011;8112;53.592;10.184;2023-09-08T10:36:50;7.95;;;5.85;;
16015;SDS011;8112;53.592;10.184;2023-09-08T10:41:53;6.85;;;5.68;;
16015;SDS011;8112;53.592;10.184;2023-09-08T10:47:30;5.93;;;5.40;;
16015;SDS011;8112;53.592;10.184;2023-09-08T10:52:34;6.22;;;5.70;;
16015;SDS011;8112;53.592;10.184;2023-09-08T10:57:36;6.07;;;5.50;;
16015;SDS011;8112;53.592;10.184;2023-09-08T11:02:40;7.78;;;5.40;;
16015;SDS011;8112;53.592;10.184;2023-09-08T11:07:43;6.60;;;5.45;;
16015;SDS011;8112;53.592;10.184;2023-09-08T11:12:46;10.52;;;6.07;;
16015;SDS011;8112;53.592;10.184;2023-09-08T11:17:50;8.82;;;5.72;;
16015;SDS011;8112;53.592;10.184;2023-09-08T11:22:52;6.80;;;4.97;;
16015;SDS011;8112;53.592;10.184;2023-09-08T11:27:54;5.47;;;4.57;;
16015;SDS011;8112;53.592;10.184;2023-09-08T11:32:57;6.20;;;4.35;;
16015;SDS011;8112;53.592;10.184;2023-09-08T11:38:00;7.10;;;5.10;;
16015;SDS011;8112;53.592;10.184;2023-09-08T11:43:05;4.82;;;3.83;;
16015;SDS011;8112;53.592;10.184;2023-09-08T11:48:09;4.63;;;4.22;;
16015;SDS011;8112;53.592;10.184;2023-09-08T11:53:11;5.05;;;4.65;;
16015;SDS011;8112;53.592;10.184;2023-09-08T11:58:13;20.10;;;4.88;;
16015;SDS011;8112;53.592;10.184;2023-09-08T12:03:18;9.88;;;5.22;;
16015;SDS011;8112;53.592;10.184;2023-09-08T12:08:20;11.32;;;6.32;;
16015;SDS011;8112;53.592;10.184;2023-09-08T12:13:22;9.07;;;4.10;;
16015;SDS011;8112;53.592;10.184;2023-09-08T12:18:38;5.80;;;4.80;;
16015;SDS011;8112;53.592;10.184;2023-09-08T12:23:47;7.47;;;4.25;;
16015;SDS011;8112;53.592;10.184;2023-09-08T12:28:50;12.80;;;4.28;;
16015;SDS011;8112;53.592;10.184;2023-09-08T12:33:53;4.68;;;4.22;;
16015;SDS011;8112;53.592;10.184;2023-09-08T12:38:55;22.17;;;5.97;;
16015;SDS011;8112;53.592;10.184;2023-09-08T12:43:57;4.40;;;4.00;;
16015;SDS011;8112;53.592;10.184;2023-09-08T12:48:59;6.95;;;4.95;;
16015;SDS011;8112;53.592;10.184;2023-09-08T12:54:01;5.88;;;4.20;;
16015;SDS011;8112;53.592;10.184;2023-09-08T12:59:03;6.32;;;4.57;;
16015;SDS011;8112;53.592;10.184;2023-09-08T13:04:06;8.90;;;4.32;;
16015;SDS011;8112;53.592;10.184;2023-09-08T13:09:08;5.47;;;4.05;;
16015;SDS011;8112;53.592;10.184;2023-09-08T13:14:10;13.77;;;4.78;;
16015;SDS011;8112;53.592;10.184;2023-09-08T13:19:13;24.73;;;6.43;;
16015;SDS011;8112;53.592;10.184;2023-09-08T13:24:15;4.28;;;3.88;;
16015;SDS011;8112;53.592;10.184;2023-09-08T13:29:17;5.90;;;5.30;;
16015;SDS011;8112;53.592;10.184;2023-09-08T13:34:20;6.22;;;4.35;;
16015;SDS011;8112;53.592;10.184;2023-09-08T13:39:21;5.35;;;4.22;;
16015;SDS011;8112;53.592;10.184;2023-09-08T13:44:23;10.98;;;5.55;;
16015;SDS011;8112;53.592;10.184;2023-09-08T13:49:27;4.85;;;3.80;;
16015;SDS011;8112;53.592;10.184;2023-09-08T13:54:28;12.75;;;5.82;;
16015;SDS011;8112;53.592;10.184;2023-09-08T13:59:30;19.05;;;5.35;;
16015;SDS011;8112;53.592;10.184;2023-09-08T14:04:33;5.30;;;4.43;;
16015;SDS011;8112;53.592;10.184;2023-09-08T14:09:35;4.07;;;3.63;;
16015;SDS011;8112;53.592;10.184;2023-09-08T14:14:37;5.70;;;3.95;;
16015;SDS011;8112;53.592;10.184;2023-09-08T14:19:40;5.35;;;4.00;;
16015;SDS011;8112;53.592;10.184;2023-09-08T14:24:42;4.45;;;3.92;;
16015;SDS011;8112;53.592;10.184;2023-09-08T14:29:43;5.68;;;3.83;;
16015;SDS011;8112;53.592;10.184;2023-09-08T14:34:46;6.18;;;3.78;;
16015;SDS011;8112;53.592;10.184;2023-09-08T14:39:49;4.65;;;3.88;;
16015;SDS011;8112;53.592;10.184;2023-09-08T14:44:51;4.60;;;4.20;;
16015;SDS011;8112;53.592;10.184;2023-09-08T14:49:54;4.50;;;4.10;;
16015;SDS011;8112;53.592;10.184;2023-09-08T14:54:56;7.35;;;4.30;;
16015;SDS011;8112;53.592;10.184;2023-09-08T14:59:58;4.32;;;3.92;;
16015;SDS011;8112;53.592;10.184;2023-09-08T15:05:01;4.45;;;4.05;;
16015;SDS011;8112;53.592;10.184;2023-09-08T15:10:03;4.45;;;3.80;;
16015;SDS011;8112;53.592;10.184;2023-09-08T15:15:06;7.20;;;4.40;;
16015;SDS011;8112;53.592;10.184;2023-09-08T15:20:10;7.03;;;4.30;;
16015;SDS011;8112;53.592;10.184;2023-09-08T15:25:13;5.32;;;4.82;;
16015;SDS011;8112;53.592;10.184;2023-09-08T15:30:15;4.20;;;3.75;;
16015;SDS011;8112;53.592;10.184;2023-09-08T15:35:18;5.82;;;4.00;;
16015;SDS011;8112;53.592;10.184;2023-09-08T15:40:20;6.45;;;3.90;;
16015;SDS011;8112;53.592;10.184;2023-09-08T15:45:22;4.70;;;3.45;;
16015;SDS011;8112;53.592;10.184;2023-09-08T15:50:25;5.93;;;3.53;;
16015;SDS011;8112;53.592;10.184;2023-09-08T15:55:27;4.38;;;3.88;;
16015;SDS011;8112;53.592;10.184;2023-09-08T16:00:29;5.47;;;4.15;;
16015;SDS011;8112;53.592;10.184;2023-09-08T16:05:32;4.70;;;4.07;;
16015;SDS011;8112;53.592;10.184;2023-09-08T16:10:34;6.32;;;4.00;;
16015;SDS011;8112;53.592;10.184;2023-09-08T16:15:36;4.55;;;4.10;;
16015;SDS011;8112;53.592;10.184;2023-09-08T16:20:39;10.82;;;4.53;;
16015;SDS011;8112;53.592;10.184;2023-09-08T16:25:41;5.22;;;4.20;;
16015;SDS011;8112;53.592;10.184;2023-09-08T16:30:42;4.22;;;3.83;;
16015;SDS011;8112;53.592;10.184;2023-09-08T16:35:45;4.45;;;4.05;;
16015;SDS011;8112;53.592;10.184;2023-09-08T16:40:47;6.15;;;4.10;;
16015;SDS011;8112;53.592;10.184;2023-09-08T16:45:49;10.13;;;4.35;;
16015;SDS011;8112;53.592;10.184;2023-09-08T16:50:52;8.40;;;4.35;;
16015;SDS011;8112;53.592;10.184;2023-09-08T16:55:53;6.95;;;4.53;;
16015;SDS011;8112;53.592;10.184;2023-09-08T17:00:55;4.72;;;4.22;;
16015;SDS011;8112;53.592;10.184;2023-09-08T17:05:58;9.70;;;4.72;;
16015;SDS011;8112;53.592;10.184;2023-09-08T17:11:02;6.53;;;4.70;;
16015;SDS011;8112;53.592;10.184;2023-09-08T17:16:04;11.25;;;5.18;;
16015;SDS011;8112;53.592;10.184;2023-09-08T17:21:07;6.40;;;5.60;;
16015;SDS011;8112;53.592;10.184;2023-09-08T17:26:09;5.60;;;4.83;;
16015;SDS011;8112;53.592;10.184;2023-09-08T17:31:11;6.57;;;5.10;;
16015;SDS011;8112;53.592;10.184;2023-09-08T17:36:14;5.93;;;4.93;;
16015;SDS011;8112;53.592;10.184;2023-09-08T17:41:15;5.87;;;4.87;;
16015;SDS011;8112;53.592;10.184;2023-09-08T17:46:17;7.47;;;5.33;;
16015;SDS011;8112;53.592;10.184;2023-09-08T17:51:20;8.77;;;5.03;;
16015;SDS011;8112;53.592;10.184;2023-09-08T17:56:22;6.37;;;5.20;;
16015;SDS011;8112;53.592;10.184;2023-09-08T18:01:24;7.90;;;4.87;;
16015;SDS011;8112;53.592;10.184;2023-09-08T18:06:27;15.63;;;5.67;;
16015;SDS011;8112;53.592;10.184;2023-09-08T18:11:28;9.00;;;5.37;;
16015;SDS011;8112;53.592;10.184;2023-09-08T18:16:30;14.13;;;8.20;;
16015;SDS011;8112;53.592;10.184;2023-09-08T18:21:33;10.27;;;7.93;;
16015;SDS011;8112;53.592;10.184;2023-09-08T18:26:35;15.77;;;9.40;;
16015;SDS011;8112;53.592;10.184;2023-09-08T18:31:36;15.77;;;11.00;;
16015;SDS011;8112;53.592;10.184;2023-09-08T18:36:41;13.60;;;10.80;;
16015;SDS011;8112;53.592;10.184;2023-09-08T18:41:43;11.23;;;8.53;;
16015;SDS011;8112;53.592;10.184;2023-09-08T18:46:45;9.90;;;8.40;;
16015;SDS011;8112;53.592;10.184;2023-09-08T18:51:48;8.13;;;5.83;;
16015;SDS011;8112;53.592;10.184;2023-09-08T18:56:50;11.00;;;5.80;;
16015;SDS011;8112;53.592;10.184;2023-09-08T19:01:52;6.37;;;5.43;;
16015;SDS011;8112;53.592;10.184;2023-09-08T19:06:55;6.00;;;5.00;;
16015;SDS011;8112;53.592;10.184;2023-09-08T19:11:57;5.57;;;5.10;;
16015;SDS011;8112;53.592;10.184;2023-09-08T19:16:59;6.57;;;5.90;;
16015;SDS011;8112;53.592;10.184;2023-09-08T19:22:04;6.60;;;6.00;;
16015;SDS011;8112;53.592;10.184;2023-09-08T19:27:06;5.33;;;4.83;;
16015;SDS011;8112;53.592;10.184;2023-09-08T19:32:08;6.40;;;5.73;;
16015;SDS011;8112;53.592;10.184;2023-09-08T19:37:11;6.73;;;6.03;;
16015;SDS011;8112;53.592;10.184;2023-09-08T19:42:14;7.83;;;5.93;;
16015;SDS011;8112;53.592;10.184;2023-09-08T19:47:17;9.73;;;6.00;;
16015;SDS011;8112;53.592;10.184;2023-09-08T19:52:20;9.50;;;6.40;;
16015;SDS011;8112;53.592;10.184;2023-09-08T19:57:22;7.33;;;6.13;;
16015;SDS011;8112;53.592;10.184;2023-09-08T20:02:24;7.63;;;5.83;;
16015;SDS011;8112;53.592;10.184;2023-09-08T20:07:27;7.67;;;6.87;;
16015;SDS011;8112;53.592;10.184;2023-09-08T20:12:29;9.07;;;6.70;;
16015;SDS011;8112;53.592;10.184;2023-09-08T20:17:30;9.17;;;7.03;;
16015;SDS011;8112;53.592;10.184;2023-09-08T20:22:33;10.13;;;7.40;;
16015;SDS011;8112;53.592;10.184;2023-09-08T20:27:35;9.17;;;7.20;;
16015;SDS011;8112;53.592;10.184;2023-09-08T20:32:37;7.47;;;6.73;;
16015;SDS011;8112;53.592;10.184;2023-09-08T20:37:40;7.43;;;6.80;;
16015;SDS011;8112;53.592;10.184;2023-09-08T20:42:41;13.50;;;8.07;;
16015;SDS011;8112;53.592;10.184;2023-09-08T20:47:44;7.80;;;7.13;;
16015;SDS011;8112;53.592;10.184;2023-09-08T20:52:50;7.37;;;6.70;;
16015;SDS011;8112;53.592;10.184;2023-09-08T20:57:51;7.57;;;6.87;;
16015;SDS011;8112;53.592;10.184;2023-09-08T21:02:53;9.20;;;7.27;;
16015;SDS011;8112;53.592;10.184;2023-09-08T21:07:56;8.27;;;6.63;;
16015;SDS011;8112;53.592;10.184;2023-09-08T21:12:58;8.07;;;6.37;;
16015;SDS011;8112;53.592;10.184;2023-09-08T21:17:59;6.90;;;6.30;;
16015;SDS011;8112;53.592;10.184;2023-09-08T21:23:03;7.07;;;6.47;;
16015;SDS011;8112;53.592;10.184;2023-09-08T21:28:05;7.13;;;6.43;;
16015;SDS011;8112;53.592;10.184;2023-09-08T21:33:07;8.20;;;7.17;;
16015;SDS011;8112;53.592;10.184;2023-09-08T21:38:10;7.77;;;7.10;;
16015;SDS011;8112;53.592;10.184;2023-09-08T21:43:12;7.13;;;6.43;;
16015;SDS011;8112;53.592;10.184;2023-09-08T21:48:13;7.47;;;6.80;;
16015;SDS011;8112;53.592;10.184;2023-09-08T21:53:16;7.83;;;6.90;;
16015;SDS011;8112;53.592;10.184;2023-09-08T21:58:18;7.60;;;6.80;;
16015;SDS011;8112;53.592;10.184;2023-09-08T22:03:20;7.77;;;6.97;;
16015;SDS011;8112;53.592;10.184;2023-09-08T22:08:23;8.30;;;7.47;;
16015;SDS011;8112;53.592;10.184;2023-09-08T22:13:24;7.63;;;6.90;;
16015;SDS011;8112;53.592;10.184;2023-09-08T22:18:26;7.97;;;7.13;;
16015;SDS011;8112;53.592;10.184;2023-09-08T22:23:31;7.03;;;6.33;;
16015;SDS011;8112;53.592;10.184;2023-09-08T22:28:33;8.10;;;7.37;;
16015;SDS011;8112;53.592;10.184;2023-09-08T22:33:35;8.43;;;7.23;;
16015;SDS011;8112;53.592;10.184;2023-09-08T22:38:38;8.17;;;7.40;;
16015;SDS011;8112;53.592;10.184;2023-09-08T22:43:39;7.50;;;6.80;;
16015;SDS011;8112;53.592;10.184;2023-09-08T22:48:41;8.90;;;7.83;;
16015;SDS011;8112;53.592;10.184;2023-09-08T22:53:44;8.07;;;7.33;;
16015;SDS011;8112;53.592;10.184;2023-09-08T22:58:46;8.20;;;7.43;;
16015;SDS011;8112;53.592;10.184;2023-09-08T23:03:48;8.33;;;7.57;;
16015;SDS011;8112;53.592;10.184;2023-09-08T23:08:51;7.83;;;7.10;;
16015;SDS011;8112;53.592;10.184;2023-09-08T23:13:52;8.73;;;7.30;;
16015;SDS011;8112;53.592;10.184;2023-09-08T23:18:54;8.83;;;7.90;;
16015;SDS011;8112;53.592;10.184;2023-09-08T23:23:59;8.70;;;7.43;;
16015;SDS011;8112;53.592;10.184;2023-09-08T23:29:00;8.37;;;7.57;;
16015;SDS011;8112;53.592;10.184;2023-09-08T23:34:02;8.90;;;8.00;;
16015;SDS011;8112;53.592;10.184;2023-09-08T23:39:07;8.40;;;7.60;;
16015;SDS011;8112;53.592;10.184;2023-09-08T23:44:10;8.90;;;7.67;;
16015;SDS011;8112;53.592;10.184;2023-09-08T23:49:12;8.80;;;7.40;;
16015;SDS011;8112;53.592;10.184;2023-09-08T23:54:17;9.53;;;8.57;;
16015;SDS011;8112;53.592;10.184;2023-09-08T23:59:19;9.10;;;8.20;;
